sensor_id;sensor_type;location;lat;lon;timestamp;P1;durP1;ratioP1;P2;durP2;ratioP2
68275;SDS011;55106;51.438;-0.098;2022-09-17T00:02:21;5.77;;;1.20;;
68275;SDS011;55106;51.438;-0.098;2022-09-17T00:04:49;7.57;;;1.50;;
68275;SDS011;55106;51.438;-0.098;2022-09-17T00:07:15;4.78;;;1.13;;
68275;SDS011;55106;51.438;-0.098;2022-09-17T00:09:41;7.13;;;1.67;;
68275;SDS011;55106;51.438;-0.098;2022-09-17T00:12:07;5.95;;;1.00;;
68275;SDS011;55106;51.438;-0.098;2022-09-17T00:14:33;5.50;;;1.30;;
68275;SDS011;55106;51.438;-0.098;2022-09-17T00:17:00;4.25;;;1.25;;
68275;SDS011;55106;51.438;-0.098;2022-09-17T00:19:25;8.03;;;1.47;;
68275;SDS011;55106;51.438;-0.098;2022-09-17T00:21:51;8.52;;;1.58;;
68275;SDS011;55106;51.438;-0.098;2022-09-17T00:24:17;5.43;;;1.10;;
68275;SDS011;55106;51.438;-0.098;2022-09-17T00:26:44;6.85;;;1.30;;
68275;SDS011;55106;51.438;-0.098;2022-09-17T00:29:10;6.87;;;1.20;;
68275;SDS011;55106;51.438;-0.098;2022-09-17T00:31:35;4.83;;;1.27;;
68275;SDS011;55106;51.438;-0.098;2022-09-17T00:34:01;6.50;;;1.50;;
68275;SDS011;55106;51.438;-0.098;2022-09-17T00:36:27;5.85;;;1.30;;
68275;SDS011;55106;51.438;-0.098;2022-09-17T00:38:54;6.87;;;1.50;;
68275;SDS011;55106;51.438;-0.098;2022-09-17T00:41:22;5.30;;;1.30;;
68275;SDS011;55106;51.438;-0.098;2022-09-17T00:43:53;5.47;;;1.40;;
68275;SDS011;55106;51.438;-0.098;2022-09-17T00:48:53;6.15;;;1.45;;
68275;SDS011;55106;51.438;-0.098;2022-09-17T00:51:26;7.57;;;1.30;;
68275;SDS011;55106;51.438;-0.098;2022-09-17T00:53:57;4.10;;;1.13;;
68275;SDS011;55106;51.438;-0.098;2022-09-17T00:56:26;3.95;;;1.45;;
68275;SDS011;55106;51.438;-0.098;2022-09-17T00:58:55;5.45;;;1.48;;
68275;SDS011;55106;51.438;-0.098;2022-09-17T01:01:21;5.43;;;1.30;;
68275;SDS011;55106;51.438;-0.098;2022-09-17T01:03:47;6.07;;;1.50;;
68275;SDS011;55106;51.438;-0.098;2022-09-17T01:08:56;6.55;;;1.50;;
68275;SDS011;55106;51.438;-0.098;2022-09-17T01:14:20;4.00;;;1.45;;
68275;SDS011;55106;51.438;-0.098;2022-09-17T01:29:12;5.72;;;1.50;;
68275;SDS011;55106;51.438;-0.098;2022-09-17T01:37:03;8.73;;;1.60;;
68275;SDS011;55106;51.438;-0.098;2022-09-17T01:44:40;5.20;;;1.60;;
68275;SDS011;55106;51.438;-0.098;2022-09-17T01:47:36;8.00;;;1.85;;
68275;SDS011;55106;51.438;-0.098;2022-09-17T01:50:07;10.07;;;1.73;;
68275;SDS011;55106;51.438;-0.098;2022-09-17T01:52:37;7.30;;;1.88;;
68275;SDS011;55106;51.438;-0.098;2022-09-17T01:55:09;7.35;;;1.75;;
68275;SDS011;55106;51.438;-0.098;2022-09-17T01:57:40;6.77;;;1.97;;
68275;SDS011;55106;51.438;-0.098;2022-09-17T02:00:12;5.38;;;1.77;;
68275;SDS011;55106;51.438;-0.098;2022-09-17T02:02:45;6.78;;;1.75;;
68275;SDS011;55106;51.438;-0.098;2022-09-17T02:05:18;5.35;;;1.75;;
68275;SDS011;55106;51.438;-0.098;2022-09-17T02:07:53;5.43;;;2.03;;
68275;SDS011;55106;51.438;-0.098;2022-09-17T02:10:26;6.43;;;2.10;;
68275;SDS011;55106;51.438;-0.098;2022-09-17T02:12:56;6.93;;;1.70;;
68275;SDS011;55106;51.438;-0.098;2022-09-17T02:15:38;5.90;;;1.90;;
68275;SDS011;55106;51.438;-0.098;2022-09-17T02:18:18;5.82;;;1.88;;
68275;SDS011;55106;51.438;-0.098;2022-09-17T02:21:14;9.55;;;2.00;;
68275;SDS011;55106;51.438;-0.098;2022-09-17T02:24:18;5.77;;;1.70;;
68275;SDS011;55106;51.438;-0.098;2022-09-17T02:26:48;6.38;;;2.20;;
68275;SDS011;55106;51.438;-0.098;2022-09-17T02:29:41;6.45;;;1.70;;
68275;SDS011;55106;51.438;-0.098;2022-09-17T02:32:08;5.72;;;1.90;;
68275;SDS011;55106;51.438;-0.098;2022-09-17T02:34:34;7.03;;;1.88;;
68275;SDS011;55106;51.438;-0.098;2022-09-17T02:37:01;6.43;;;1.90;;
68275;SDS011;55106;51.438;-0.098;2022-09-17T02:39:28;6.72;;;2.10;;
68275;SDS011;55106;51.438;-0.098;2022-09-17T02:44:34;5.50;;;1.97;;
68275;SDS011;55106;51.438;-0.098;2022-09-17T02:52:21;5.78;;;1.73;;
68275;SDS011;55106;51.438;-0.098;2022-09-17T03:00:13;6.00;;;1.95;;
68275;SDS011;55106;51.438;-0.098;2022-09-17T03:02:43;5.88;;;2.10;;
68275;SDS011;55106;51.438;-0.098;2022-09-17T03:05:11;6.40;;;2.08;;
68275;SDS011;55106;51.438;-0.098;2022-09-17T03:07:38;5.90;;;2.35;;
68275;SDS011;55106;51.438;-0.098;2022-09-17T03:10:04;7.27;;;2.13;;
68275;SDS011;55106;51.438;-0.098;2022-09-17T03:12:30;6.13;;;1.90;;
68275;SDS011;55106;51.438;-0.098;2022-09-17T03:14:56;6.07;;;2.10;;
68275;SDS011;55106;51.438;-0.098;2022-09-17T03:17:21;6.83;;;1.80;;
68275;SDS011;55106;51.438;-0.098;2022-09-17T03:19:47;6.17;;;2.00;;
68275;SDS011;55106;51.438;-0.098;2022-09-17T03:22:12;5.47;;;1.80;;
68275;SDS011;55106;51.438;-0.098;2022-09-17T03:24:38;6.20;;;2.08;;
68275;SDS011;55106;51.438;-0.098;2022-09-17T03:27:03;4.33;;;1.80;;
68275;SDS011;55106;51.438;-0.098;2022-09-17T03:29:29;7.50;;;2.17;;
68275;SDS011;55106;51.438;-0.098;2022-09-17T03:31:54;5.87;;;1.83;;
68275;SDS011;55106;51.438;-0.098;2022-09-17T03:34:19;5.28;;;1.98;;
68275;SDS011;55106;51.438;-0.098;2022-09-17T03:36:45;8.60;;;1.83;;
68275;SDS011;55106;51.438;-0.098;2022-09-17T03:39:10;6.87;;;1.87;;
68275;SDS011;55106;51.438;-0.098;2022-09-17T03:41:37;6.53;;;1.88;;
68275;SDS011;55106;51.438;-0.098;2022-09-17T03:44:03;8.60;;;1.92;;
68275;SDS011;55106;51.438;-0.098;2022-09-17T03:46:29;9.00;;;2.03;;
68275;SDS011;55106;51.438;-0.098;2022-09-17T03:48:55;7.80;;;2.07;;
68275;SDS011;55106;51.438;-0.098;2022-09-17T03:51:20;6.57;;;1.87;;
68275;SDS011;55106;51.438;-0.098;2022-09-17T03:53:46;5.47;;;2.03;;
68275;SDS011;55106;51.438;-0.098;2022-09-17T03:56:11;7.22;;;2.08;;
68275;SDS011;55106;51.438;-0.098;2022-09-17T03:58:37;10.37;;;2.30;;
68275;SDS011;55106;51.438;-0.098;2022-09-17T04:01:03;5.70;;;2.00;;
68275;SDS011;55106;51.438;-0.098;2022-09-17T04:03:28;5.40;;;1.80;;
68275;SDS011;55106;51.438;-0.098;2022-09-17T04:05:54;5.22;;;2.10;;
68275;SDS011;55106;51.438;-0.098;2022-09-17T04:08:19;6.17;;;2.10;;
68275;SDS011;55106;51.438;-0.098;2022-09-17T04:10:45;6.40;;;2.13;;
68275;SDS011;55106;51.438;-0.098;2022-09-17T04:13:11;5.03;;;1.80;;
68275;SDS011;55106;51.438;-0.098;2022-09-17T04:15:38;7.28;;;2.10;;
68275;SDS011;55106;51.438;-0.098;2022-09-17T04:18:04;8.15;;;1.95;;
68275;SDS011;55106;51.438;-0.098;2022-09-17T04:20:30;6.67;;;2.27;;
68275;SDS011;55106;51.438;-0.098;2022-09-17T04:22:55;7.10;;;2.50;;
68275;SDS011;55106;51.438;-0.098;2022-09-17T04:25:21;5.38;;;2.13;;
68275;SDS011;55106;51.438;-0.098;2022-09-17T04:27:47;6.38;;;2.08;;
68275;SDS011;55106;51.438;-0.098;2022-09-17T04:30:12;5.23;;;1.93;;
68275;SDS011;55106;51.438;-0.098;2022-09-17T04:32:38;6.57;;;2.35;;
68275;SDS011;55106;51.438;-0.098;2022-09-17T04:35:04;10.40;;;2.30;;
68275;SDS011;55106;51.438;-0.098;2022-09-17T04:37:30;7.47;;;2.30;;
68275;SDS011;55106;51.438;-0.098;2022-09-17T04:39:55;6.68;;;2.00;;
68275;SDS011;55106;51.438;-0.098;2022-09-17T04:42:21;7.10;;;2.30;;
68275;SDS011;55106;51.438;-0.098;2022-09-17T04:44:46;6.60;;;2.27;;
68275;SDS011;55106;51.438;-0.098;2022-09-17T04:47:11;7.53;;;2.50;;
68275;SDS011;55106;51.438;-0.098;2022-09-17T04:49:37;7.57;;;2.38;;
68275;SDS011;55106;51.438;-0.098;2022-09-17T04:52:02;5.47;;;2.17;;
68275;SDS011;55106;51.438;-0.098;2022-09-17T04:54:28;6.97;;;2.20;;
68275;SDS011;55106;51.438;-0.098;2022-09-17T04:56:53;7.63;;;2.50;;
68275;SDS011;55106;51.438;-0.098;2022-09-17T04:59:19;7.32;;;2.45;;
68275;SDS011;55106;51.438;-0.098;2022-09-17T05:01:44;6.67;;;2.03;;
68275;SDS011;55106;51.438;-0.098;2022-09-17T05:04:10;5.63;;;2.10;;
68275;SDS011;55106;51.438;-0.098;2022-09-17T05:06:36;8.77;;;2.63;;
68275;SDS011;55106;51.438;-0.098;2022-09-17T05:09:01;6.03;;;2.50;;
68275;SDS011;55106;51.438;-0.098;2022-09-17T05:11:27;6.57;;;2.50;;
68275;SDS011;55106;51.438;-0.098;2022-09-17T05:13:53;6.68;;;2.20;;
68275;SDS011;55106;51.438;-0.098;2022-09-17T05:16:18;7.70;;;2.20;;
68275;SDS011;55106;51.438;-0.098;2022-09-17T05:18:44;5.60;;;2.05;;
68275;SDS011;55106;51.438;-0.098;2022-09-17T05:21:09;5.80;;;2.17;;
68275;SDS011;55106;51.438;-0.098;2022-09-17T05:23:35;6.43;;;2.53;;
68275;SDS011;55106;51.438;-0.098;2022-09-17T05:26:00;5.87;;;2.40;;
68275;SDS011;55106;51.438;-0.098;2022-09-17T05:28:26;8.80;;;2.60;;
68275;SDS011;55106;51.438;-0.098;2022-09-17T05:30:52;9.10;;;2.60;;
68275;SDS011;55106;51.438;-0.098;2022-09-17T05:33:18;6.23;;;2.37;;
68275;SDS011;55106;51.438;-0.098;2022-09-17T05:35:44;8.68;;;2.50;;
68275;SDS011;55106;51.438;-0.098;2022-09-17T05:38:10;7.53;;;2.50;;
68275;SDS011;55106;51.438;-0.098;2022-09-17T05:40:36;13.93;;;2.90;;
68275;SDS011;55106;51.438;-0.098;2022-09-17T05:43:04;6.45;;;2.38;;
68275;SDS011;55106;51.438;-0.098;2022-09-17T05:45:34;6.03;;;2.60;;
68275;SDS011;55106;51.438;-0.098;2022-09-17T05:48:00;5.82;;;2.40;;
68275;SDS011;55106;51.438;-0.098;2022-09-17T05:50:27;7.43;;;2.50;;
68275;SDS011;55106;51.438;-0.098;2022-09-17T05:52:53;10.50;;;2.50;;
68275;SDS011;55106;51.438;-0.098;2022-09-17T05:55:21;8.00;;;2.67;;
68275;SDS011;55106;51.438;-0.098;2022-09-17T05:57:48;5.72;;;2.80;;
68275;SDS011;55106;51.438;-0.098;2022-09-17T06:00:14;5.78;;;2.30;;
68275;SDS011;55106;51.438;-0.098;2022-09-17T06:02:39;5.67;;;2.57;;
68275;SDS011;55106;51.438;-0.098;2022-09-17T06:05:05;8.63;;;2.40;;
68275;SDS011;55106;51.438;-0.098;2022-09-17T06:07:33;8.18;;;2.60;;
68275;SDS011;55106;51.438;-0.098;2022-09-17T06:10:00;7.77;;;2.30;;
68275;SDS011;55106;51.438;-0.098;2022-09-17T06:12:26;5.68;;;2.30;;
68275;SDS011;55106;51.438;-0.098;2022-09-17T06:14:51;5.10;;;2.40;;
68275;SDS011;55106;51.438;-0.098;2022-09-17T06:17:17;5.23;;;1.90;;
68275;SDS011;55106;51.438;-0.098;2022-09-17T06:19:42;6.55;;;2.33;;
68275;SDS011;55106;51.438;-0.098;2022-09-17T06:22:08;7.70;;;2.30;;
68275;SDS011;55106;51.438;-0.098;2022-09-17T06:24:33;6.33;;;2.27;;
68275;SDS011;55106;51.438;-0.098;2022-09-17T06:26:58;6.87;;;2.10;;
68275;SDS011;55106;51.438;-0.098;2022-09-17T06:29:24;7.50;;;2.28;;
68275;SDS011;55106;51.438;-0.098;2022-09-17T06:31:49;7.00;;;2.30;;
68275;SDS011;55106;51.438;-0.098;2022-09-17T06:34:15;6.50;;;2.00;;
68275;SDS011;55106;51.438;-0.098;2022-09-17T06:36:41;6.85;;;2.30;;
68275;SDS011;55106;51.438;-0.098;2022-09-17T06:39:07;5.53;;;2.10;;
68275;SDS011;55106;51.438;-0.098;2022-09-17T06:41:33;6.47;;;2.00;;
68275;SDS011;55106;51.438;-0.098;2022-09-17T06:43:59;5.27;;;1.97;;
68275;SDS011;55106;51.438;-0.098;2022-09-17T06:46:25;5.87;;;2.23;;
68275;SDS011;55106;51.438;-0.098;2022-09-17T06:48:51;5.82;;;2.33;;
68275;SDS011;55106;51.438;-0.098;2022-09-17T06:51:16;5.80;;;2.10;;
68275;SDS011;55106;51.438;-0.098;2022-09-17T06:53:42;5.17;;;2.00;;
68275;SDS011;55106;51.438;-0.098;2022-09-17T06:56:07;6.18;;;2.10;;
68275;SDS011;55106;51.438;-0.098;2022-09-17T06:58:34;6.70;;;2.33;;
68275;SDS011;55106;51.438;-0.098;2022-09-17T07:01:06;5.65;;;1.92;;
68275;SDS011;55106;51.438;-0.098;2022-09-17T07:03:31;6.10;;;1.90;;
68275;SDS011;55106;51.438;-0.098;2022-09-17T07:05:57;7.93;;;2.13;;
68275;SDS011;55106;51.438;-0.098;2022-09-17T07:08:23;7.43;;;1.87;;
68275;SDS011;55106;51.438;-0.098;2022-09-17T07:10:50;7.00;;;1.90;;
68275;SDS011;55106;51.438;-0.098;2022-09-17T07:13:16;5.60;;;1.90;;
68275;SDS011;55106;51.438;-0.098;2022-09-17T07:15:41;5.18;;;1.80;;
68275;SDS011;55106;51.438;-0.098;2022-09-17T07:18:07;6.43;;;2.03;;
68275;SDS011;55106;51.438;-0.098;2022-09-17T07:20:34;5.20;;;1.83;;
68275;SDS011;55106;51.438;-0.098;2022-09-17T07:22:59;4.83;;;1.80;;
68275;SDS011;55106;51.438;-0.098;2022-09-17T07:25:25;5.93;;;1.95;;
68275;SDS011;55106;51.438;-0.098;2022-09-17T07:27:50;5.63;;;1.60;;
68275;SDS011;55106;51.438;-0.098;2022-09-17T07:30:16;8.40;;;2.10;;
68275;SDS011;55106;51.438;-0.098;2022-09-17T07:32:42;6.10;;;1.90;;
68275;SDS011;55106;51.438;-0.098;2022-09-17T07:35:07;6.85;;;1.83;;
68275;SDS011;55106;51.438;-0.098;2022-09-17T07:37:33;6.73;;;1.80;;
68275;SDS011;55106;51.438;-0.098;2022-09-17T07:39:58;8.80;;;1.80;;
68275;SDS011;55106;51.438;-0.098;2022-09-17T07:42:25;5.90;;;1.80;;
68275;SDS011;55106;51.438;-0.098;2022-09-17T07:44:51;5.88;;;1.63;;
68275;SDS011;55106;51.438;-0.098;2022-09-17T07:47:17;4.97;;;1.67;;
68275;SDS011;55106;51.438;-0.098;2022-09-17T07:49:45;7.35;;;2.10;;
68275;SDS011;55106;51.438;-0.098;2022-09-17T07:52:10;6.40;;;1.92;;
68275;SDS011;55106;51.438;-0.098;2022-09-17T07:54:36;6.40;;;2.00;;
68275;SDS011;55106;51.438;-0.098;2022-09-17T07:57:02;11.80;;;2.00;;
68275;SDS011;55106;51.438;-0.098;2022-09-17T07:59:30;7.47;;;1.97;;
68275;SDS011;55106;51.438;-0.098;2022-09-17T08:01:56;7.65;;;1.95;;
68275;SDS011;55106;51.438;-0.098;2022-09-17T08:04:21;7.50;;;1.70;;
68275;SDS011;55106;51.438;-0.098;2022-09-17T08:06:47;6.97;;;1.73;;
68275;SDS011;55106;51.438;-0.098;2022-09-17T08:09:13;7.43;;;2.00;;
68275;SDS011;55106;51.438;-0.098;2022-09-17T08:11:40;8.95;;;1.90;;
68275;SDS011;55106;51.438;-0.098;2022-09-17T08:14:06;7.35;;;1.85;;
68275;SDS011;55106;51.438;-0.098;2022-09-17T08:16:34;5.10;;;1.73;;
68275;SDS011;55106;51.438;-0.098;2022-09-17T08:19:00;5.70;;;1.55;;
68275;SDS011;55106;51.438;-0.098;2022-09-17T08:21:25;4.43;;;1.40;;
68275;SDS011;55106;51.438;-0.098;2022-09-17T08:23:51;7.67;;;1.60;;
68275;SDS011;55106;51.438;-0.098;2022-09-17T08:26:17;5.40;;;1.50;;
68275;SDS011;55106;51.438;-0.098;2022-09-17T08:28:46;5.10;;;1.30;;
68275;SDS011;55106;51.438;-0.098;2022-09-17T08:31:14;5.72;;;1.27;;
68275;SDS011;55106;51.438;-0.098;2022-09-17T08:33:41;5.75;;;1.65;;
68275;SDS011;55106;51.438;-0.098;2022-09-17T08:36:07;6.63;;;1.40;;
68275;SDS011;55106;51.438;-0.098;2022-09-17T08:38:35;7.17;;;1.60;;
68275;SDS011;55106;51.438;-0.098;2022-09-17T08:43:50;5.25;;;1.20;;
68275;SDS011;55106;51.438;-0.098;2022-09-17T08:46:31;6.32;;;1.10;;
68275;SDS011;55106;51.438;-0.098;2022-09-17T08:49:15;6.50;;;1.40;;
68275;SDS011;55106;51.438;-0.098;2022-09-17T09:00:03;4.63;;;1.23;;
68275;SDS011;55106;51.438;-0.098;2022-09-17T09:05:10;4.53;;;1.23;;
68275;SDS011;55106;51.438;-0.098;2022-09-17T09:07:44;5.72;;;1.65;;
68275;SDS011;55106;51.438;-0.098;2022-09-17T09:10:16;5.57;;;1.10;;
68275;SDS011;55106;51.438;-0.098;2022-09-17T09:12:47;10.52;;;1.80;;
68275;SDS011;55106;51.438;-0.098;2022-09-17T09:18:25;8.63;;;2.43;;
68275;SDS011;55106;51.438;-0.098;2022-09-17T09:23:45;17.33;;;1.50;;
68275;SDS011;55106;51.438;-0.098;2022-09-17T09:34:21;18.95;;;1.55;;
68275;SDS011;55106;51.438;-0.098;2022-09-17T09:36:48;7.43;;;1.20;;
68275;SDS011;55106;51.438;-0.098;2022-09-17T09:39:19;6.70;;;1.23;;
68275;SDS011;55106;51.438;-0.098;2022-09-17T09:41:52;13.75;;;1.80;;
68275;SDS011;55106;51.438;-0.098;2022-09-17T09:44:23;5.63;;;1.20;;
68275;SDS011;55106;51.438;-0.098;2022-09-17T09:47:02;7.53;;;1.33;;
68275;SDS011;55106;51.438;-0.098;2022-09-17T09:54:56;4.95;;;1.40;;
68275;SDS011;55106;51.438;-0.098;2022-09-17T09:57:34;7.30;;;1.20;;
68275;SDS011;55106;51.438;-0.098;2022-09-17T10:03:27;5.20;;;1.20;;
68275;SDS011;55106;51.438;-0.098;2022-09-17T10:06:01;4.60;;;1.10;;
68275;SDS011;55106;51.438;-0.098;2022-09-17T10:08:36;5.90;;;1.05;;
68275;SDS011;55106;51.438;-0.098;2022-09-17T10:13:38;4.45;;;1.08;;
68275;SDS011;55106;51.438;-0.098;2022-09-17T10:18:46;4.10;;;1.10;;
68275;SDS011;55106;51.438;-0.098;2022-09-17T10:21:20;5.72;;;1.00;;
68275;SDS011;55106;51.438;-0.098;2022-09-17T10:23:47;4.73;;;1.10;;
68275;SDS011;55106;51.438;-0.098;2022-09-17T10:26:21;6.53;;;1.75;;
68275;SDS011;55106;51.438;-0.098;2022-09-17T10:28:49;4.82;;;1.25;;
68275;SDS011;55106;51.438;-0.098;2022-09-17T10:31:17;4.70;;;1.35;;
68275;SDS011;55106;51.438;-0.098;2022-09-17T10:36:16;3.28;;;0.90;;
68275;SDS011;55106;51.438;-0.098;2022-09-17T10:39:17;4.40;;;1.30;;
68275;SDS011;55106;51.438;-0.098;2022-09-17T10:41:53;4.60;;;1.40;;
68275;SDS011;55106;51.438;-0.098;2022-09-17T10:44:37;4.45;;;1.08;;
68275;SDS011;55106;51.438;-0.098;2022-09-17T10:47:16;4.93;;;1.07;;
68275;SDS011;55106;51.438;-0.098;2022-09-17T10:52:25;3.65;;;1.10;;
68275;SDS011;55106;51.438;-0.098;2022-09-17T11:02:48;5.70;;;1.00;;
68275;SDS011;55106;51.438;-0.098;2022-09-17T11:05:34;8.13;;;1.20;;
68275;SDS011;55106;51.438;-0.098;2022-09-17T11:08:52;4.53;;;1.00;;
68275;SDS011;55106;51.438;-0.098;2022-09-17T11:14:32;4.63;;;1.10;;
68275;SDS011;55106;51.438;-0.098;2022-09-17T11:22:50;5.00;;;1.13;;
68275;SDS011;55106;51.438;-0.098;2022-09-17T11:39:23;5.10;;;1.30;;
68275;SDS011;55106;51.438;-0.098;2022-09-17T11:41:57;4.67;;;1.20;;
68275;SDS011;55106;51.438;-0.098;2022-09-17T11:44:31;4.15;;;1.08;;
68275;SDS011;55106;51.438;-0.098;2022-09-17T11:47:01;4.05;;;1.20;;
68275;SDS011;55106;51.438;-0.098;2022-09-17T11:49:33;3.60;;;1.08;;
68275;SDS011;55106;51.438;-0.098;2022-09-17T11:57:40;5.63;;;1.10;;
68275;SDS011;55106;51.438;-0.098;2022-09-17T12:05:20;3.97;;;1.00;;
68275;SDS011;55106;51.438;-0.098;2022-09-17T12:07:53;4.27;;;1.10;;
68275;SDS011;55106;51.438;-0.098;2022-09-17T12:16:03;4.47;;;0.90;;
68275;SDS011;55106;51.438;-0.098;2022-09-17T12:21:32;5.43;;;1.10;;
68275;SDS011;55106;51.438;-0.098;2022-09-17T12:32:32;5.93;;;1.27;;
68275;SDS011;55106;51.438;-0.098;2022-09-17T12:34:43;4.00;;;1.00;;
68275;SDS011;55106;51.438;-0.098;2022-09-17T12:42:36;7.00;;;1.30;;
68275;SDS011;55106;51.438;-0.098;2022-09-17T12:45:14;3.88;;;1.30;;
68275;SDS011;55106;51.438;-0.098;2022-09-17T12:53:33;4.40;;;1.15;;
68275;SDS011;55106;51.438;-0.098;2022-09-17T13:12:53;4.85;;;1.17;;
68275;SDS011;55106;51.438;-0.098;2022-09-17T13:15:40;5.07;;;1.20;;
68275;SDS011;55106;51.438;-0.098;2022-09-17T13:21:10;4.40;;;1.00;;
68275;SDS011;55106;51.438;-0.098;2022-09-17T13:26:06;4.05;;;1.13;;
68275;SDS011;55106;51.438;-0.098;2022-09-17T13:28:51;5.90;;;1.57;;
68275;SDS011;55106;51.438;-0.098;2022-09-17T13:34:01;4.70;;;0.98;;
68275;SDS011;55106;51.438;-0.098;2022-09-17T13:36:34;4.85;;;1.10;;
68275;SDS011;55106;51.438;-0.098;2022-09-17T13:39:02;3.58;;;1.00;;
68275;SDS011;55106;51.438;-0.098;2022-09-17T13:41:29;4.87;;;1.10;;
68275;SDS011;55106;51.438;-0.098;2022-09-17T13:43:58;4.60;;;1.00;;
68275;SDS011;55106;51.438;-0.098;2022-09-17T13:46:24;4.45;;;1.13;;
68275;SDS011;55106;51.438;-0.098;2022-09-17T13:48:53;4.35;;;1.10;;
68275;SDS011;55106;51.438;-0.098;2022-09-17T13:54:03;4.67;;;1.00;;
68275;SDS011;55106;51.438;-0.098;2022-09-17T13:59:18;4.55;;;1.00;;
68275;SDS011;55106;51.438;-0.098;2022-09-17T14:01:58;5.20;;;1.20;;
68275;SDS011;55106;51.438;-0.098;2022-09-17T14:09:55;5.03;;;1.30;;
68275;SDS011;55106;51.438;-0.098;2022-09-17T14:23:34;5.65;;;1.30;;
68275;SDS011;55106;51.438;-0.098;2022-09-17T14:26:11;4.70;;;1.10;;
68275;SDS011;55106;51.438;-0.098;2022-09-17T14:31:30;4.85;;;1.17;;
68275;SDS011;55106;51.438;-0.098;2022-09-17T14:34:01;5.53;;;1.37;;
68275;SDS011;55106;51.438;-0.098;2022-09-17T14:36:28;5.32;;;1.10;;
68275;SDS011;55106;51.438;-0.098;2022-09-17T14:39:01;4.75;;;1.20;;
68275;SDS011;55106;51.438;-0.098;2022-09-17T14:41:31;4.97;;;1.05;;
68275;SDS011;55106;51.438;-0.098;2022-09-17T14:44:19;6.20;;;1.30;;
68275;SDS011;55106;51.438;-0.098;2022-09-17T14:46:55;7.23;;;1.27;;
68275;SDS011;55106;51.438;-0.098;2022-09-17T14:49:29;6.10;;;1.27;;
68275;SDS011;55106;51.438;-0.098;2022-09-17T14:51:58;4.70;;;1.02;;
68275;SDS011;55106;51.438;-0.098;2022-09-17T14:54:30;5.32;;;1.50;;
68275;SDS011;55106;51.438;-0.098;2022-09-17T15:19:04;4.60;;;1.30;;
68275;SDS011;55106;51.438;-0.098;2022-09-17T15:21:38;5.90;;;1.40;;
68275;SDS011;55106;51.438;-0.098;2022-09-17T15:24:31;5.40;;;1.40;;
68275;SDS011;55106;51.438;-0.098;2022-09-17T15:27:18;5.30;;;1.60;;
68275;SDS011;55106;51.438;-0.098;2022-09-17T15:29:49;7.35;;;1.60;;
68275;SDS011;55106;51.438;-0.098;2022-09-17T15:32:18;4.57;;;1.88;;
68275;SDS011;55106;51.438;-0.098;2022-09-17T15:34:44;5.63;;;1.37;;
68275;SDS011;55106;51.438;-0.098;2022-09-17T15:39:42;5.50;;;2.05;;
68275;SDS011;55106;51.438;-0.098;2022-09-17T15:42:28;5.10;;;1.35;;
68275;SDS011;55106;51.438;-0.098;2022-09-17T15:45:07;4.17;;;1.20;;
68275;SDS011;55106;51.438;-0.098;2022-09-17T15:47:55;5.93;;;1.65;;
68275;SDS011;55106;51.438;-0.098;2022-09-17T15:50:26;3.80;;;1.30;;
68275;SDS011;55106;51.438;-0.098;2022-09-17T15:55:37;4.65;;;1.40;;
68275;SDS011;55106;51.438;-0.098;2022-09-17T15:58:18;3.97;;;1.50;;
68275;SDS011;55106;51.438;-0.098;2022-09-17T16:00:46;4.03;;;1.63;;
68275;SDS011;55106;51.438;-0.098;2022-09-17T16:08:59;5.22;;;1.23;;
68275;SDS011;55106;51.438;-0.098;2022-09-17T16:11:26;4.63;;;1.40;;
68275;SDS011;55106;51.438;-0.098;2022-09-17T16:13:53;5.32;;;2.15;;
68275;SDS011;55106;51.438;-0.098;2022-09-17T16:16:21;6.20;;;1.73;;
68275;SDS011;55106;51.438;-0.098;2022-09-17T16:18:48;4.57;;;1.30;;
68275;SDS011;55106;51.438;-0.098;2022-09-17T16:21:14;5.50;;;1.63;;
68275;SDS011;55106;51.438;-0.098;2022-09-17T16:23:42;4.80;;;1.30;;
68275;SDS011;55106;51.438;-0.098;2022-09-17T16:26:09;4.97;;;1.70;;
68275;SDS011;55106;51.438;-0.098;2022-09-17T16:28:38;5.23;;;1.60;;
68275;SDS011;55106;51.438;-0.098;2022-09-17T16:31:04;5.63;;;1.67;;
68275;SDS011;55106;51.438;-0.098;2022-09-17T16:33:30;4.72;;;1.75;;
68275;SDS011;55106;51.438;-0.098;2022-09-17T16:35:56;5.33;;;2.13;;
68275;SDS011;55106;51.438;-0.098;2022-09-17T16:38:24;6.05;;;1.70;;
68275;SDS011;55106;51.438;-0.098;2022-09-17T16:40:50;4.32;;;1.50;;
68275;SDS011;55106;51.438;-0.098;2022-09-17T16:43:16;4.30;;;1.50;;
68275;SDS011;55106;51.438;-0.098;2022-09-17T16:45:42;4.10;;;1.30;;
68275;SDS011;55106;51.438;-0.098;2022-09-17T16:48:08;6.87;;;1.70;;
68275;SDS011;55106;51.438;-0.098;2022-09-17T16:50:33;4.07;;;1.45;;
68275;SDS011;55106;51.438;-0.098;2022-09-17T16:52:59;7.80;;;1.63;;
68275;SDS011;55106;51.438;-0.098;2022-09-17T16:55:27;6.25;;;1.65;;
68275;SDS011;55106;51.438;-0.098;2022-09-17T16:57:55;4.18;;;1.58;;
68275;SDS011;55106;51.438;-0.098;2022-09-17T17:00:22;5.83;;;1.70;;
68275;SDS011;55106;51.438;-0.098;2022-09-17T17:02:51;5.93;;;1.90;;
68275;SDS011;55106;51.438;-0.098;2022-09-17T17:05:18;5.37;;;1.87;;
68275;SDS011;55106;51.438;-0.098;2022-09-17T17:07:44;5.82;;;1.83;;
68275;SDS011;55106;51.438;-0.098;2022-09-17T17:10:09;5.80;;;1.67;;
68275;SDS011;55106;51.438;-0.098;2022-09-17T17:12:35;5.37;;;1.70;;
68275;SDS011;55106;51.438;-0.098;2022-09-17T17:15:02;4.63;;;1.48;;
68275;SDS011;55106;51.438;-0.098;2022-09-17T17:17:30;6.15;;;1.50;;
68275;SDS011;55106;51.438;-0.098;2022-09-17T17:19:57;4.00;;;1.30;;
68275;SDS011;55106;51.438;-0.098;2022-09-17T17:22:22;4.77;;;1.40;;
68275;SDS011;55106;51.438;-0.098;2022-09-17T17:24:48;5.55;;;1.70;;
68275;SDS011;55106;51.438;-0.098;2022-09-17T17:27:13;5.67;;;1.63;;
68275;SDS011;55106;51.438;-0.098;2022-09-17T17:29:39;4.33;;;1.50;;
68275;SDS011;55106;51.438;-0.098;2022-09-17T17:32:05;4.22;;;1.50;;
68275;SDS011;55106;51.438;-0.098;2022-09-17T17:34:31;5.10;;;1.85;;
68275;SDS011;55106;51.438;-0.098;2022-09-17T17:36:57;5.97;;;1.70;;
68275;SDS011;55106;51.438;-0.098;2022-09-17T17:39:24;4.70;;;1.63;;
68275;SDS011;55106;51.438;-0.098;2022-09-17T17:41:49;5.47;;;1.70;;
68275;SDS011;55106;51.438;-0.098;2022-09-17T17:44:14;6.57;;;1.70;;
68275;SDS011;55106;51.438;-0.098;2022-09-17T17:46:40;3.80;;;1.30;;
68275;SDS011;55106;51.438;-0.098;2022-09-17T17:49:06;5.40;;;1.40;;
68275;SDS011;55106;51.438;-0.098;2022-09-17T17:51:32;6.15;;;1.60;;
68275;SDS011;55106;51.438;-0.098;2022-09-17T17:53:58;4.35;;;1.40;;
68275;SDS011;55106;51.438;-0.098;2022-09-17T17:56:24;4.47;;;1.47;;
68275;SDS011;55106;51.438;-0.098;2022-09-17T17:58:53;5.43;;;1.50;;
68275;SDS011;55106;51.438;-0.098;2022-09-17T18:01:21;5.23;;;1.60;;
68275;SDS011;55106;51.438;-0.098;2022-09-17T18:03:49;4.53;;;1.65;;
68275;SDS011;55106;51.438;-0.098;2022-09-17T18:06:20;6.10;;;1.75;;
68275;SDS011;55106;51.438;-0.098;2022-09-17T18:08:45;6.67;;;2.03;;
68275;SDS011;55106;51.438;-0.098;2022-09-17T18:11:11;5.23;;;1.80;;
68275;SDS011;55106;51.438;-0.098;2022-09-17T18:13:37;5.30;;;1.40;;
68275;SDS011;55106;51.438;-0.098;2022-09-17T18:16:04;6.47;;;1.80;;
68275;SDS011;55106;51.438;-0.098;2022-09-17T18:18:31;5.30;;;1.53;;
68275;SDS011;55106;51.438;-0.098;2022-09-17T18:21:00;5.20;;;1.60;;
68275;SDS011;55106;51.438;-0.098;2022-09-17T18:23:27;4.25;;;1.60;;
68275;SDS011;55106;51.438;-0.098;2022-09-17T18:25:56;7.63;;;1.85;;
68275;SDS011;55106;51.438;-0.098;2022-09-17T18:28:23;7.05;;;1.90;;
68275;SDS011;55106;51.438;-0.098;2022-09-17T18:30:49;6.10;;;2.20;;
68275;SDS011;55106;51.438;-0.098;2022-09-17T18:33:25;5.95;;;2.08;;
68275;SDS011;55106;51.438;-0.098;2022-09-17T18:35:51;6.70;;;2.03;;
68275;SDS011;55106;51.438;-0.098;2022-09-17T18:38:21;5.72;;;2.20;;
68275;SDS011;55106;51.438;-0.098;2022-09-17T18:40:48;6.22;;;2.17;;
68275;SDS011;55106;51.438;-0.098;2022-09-17T18:43:14;5.30;;;1.80;;
68275;SDS011;55106;51.438;-0.098;2022-09-17T18:45:39;5.57;;;2.00;;
68275;SDS011;55106;51.438;-0.098;2022-09-17T18:48:05;5.47;;;1.88;;